createdAt,value
2019-04-30T00:02:01.423Z,83.78
2019-04-30T00:04:40.201Z,84.13
2019-04-30T00:07:10.254Z,84.97
2019-04-30T00:09:38.056Z,84.34
2019-04-30T00:12:07.097Z,84.34
2019-04-30T00:14:40.097Z,85.22
2019-04-30T00:17:10.751Z,85.23
2019-04-30T00:19:37.757Z,85.07
2019-04-30T00:22:06.834Z,84.18
2019-04-30T00:24:39.877Z,83.75
2019-04-30T00:27:06.823Z,83.93
2019-04-30T00:29:36.082Z,83.76
2019-04-30T00:32:07.815Z,83.63
2019-04-30T00:34:39.273Z,84.01
2019-04-30T00:37:07.362Z,85.45
2019-04-30T00:39:36.656Z,84.87
2019-04-30T00:42:05.394Z,85.74
2019-04-30T00:44:35.673Z,87.71
2019-04-30T00:47:08.298Z,86.00
2019-04-30T00:49:37.016Z,87.23
2019-04-30T00:52:06.019Z,87.23
2019-04-30T00:54:35.192Z,87.16
2019-04-30T00:57:07.512Z,86.53
2019-04-30T00:59:35.207Z,86.53
2019-04-30T01:02:29.157Z,86.31
2019-04-30T01:05:00.201Z,86.38
2019-04-30T01:07:26.557Z,86.32
2019-04-30T01:09:55.611Z,85.71
2019-04-30T01:12:28.951Z,85.71
2019-04-30T01:14:55.227Z,84.50
2019-04-30T01:17:24.527Z,84.59
2019-04-30T01:19:54.606Z,85.72
2019-04-30T01:22:28.065Z,87.62
2019-04-30T01:24:54.276Z,84.56
2019-04-30T01:27:23.263Z,87.61
2019-04-30T01:29:52.568Z,88.49
2019-04-30T01:32:21.334Z,88.49
2019-04-30T01:34:53.766Z,91.00
2019-04-30T01:37:28.648Z,91.71
2019-04-30T01:39:51.663Z,92.15
2019-04-30T01:42:20.610Z,92.96
2019-04-30T01:44:53.569Z,92.96
2019-04-30T01:47:21.442Z,92.92
2019-04-30T01:49:50.274Z,92.75
2019-04-30T01:52:19.449Z,92.80
2019-04-30T01:54:49.038Z,92.64
2019-04-30T01:57:26.704Z,92.45
2019-04-30T02:00:32.924Z,92.02
2019-04-30T02:03:01.851Z,92.20
2019-04-30T02:05:30.693Z,91.72
2019-04-30T02:07:59.697Z,92.35
2019-04-30T02:10:28.671Z,92.62
2019-04-30T02:12:59.111Z,93.22
2019-04-30T02:15:29.184Z,93.50
2019-04-30T02:17:58.898Z,93.82
2019-04-30T02:20:28.744Z,94.03
2019-04-30T02:22:58.588Z,94.10
2019-04-30T02:25:29.385Z,94.09
2019-04-30T02:27:59.009Z,94.01
2019-04-30T02:30:30.813Z,93.86
2019-04-30T02:33:00.481Z,94.00
2019-04-30T02:35:50.609Z,94.00
2019-04-30T02:38:23.354Z,94.55
2019-04-30T02:40:52.056Z,95.01
2019-04-30T02:43:22.989Z,95.01
2019-04-30T02:45:53.702Z,94.96
2019-04-30T02:48:23.947Z,95.21
2019-04-30T02:50:54.776Z,94.95
2019-04-30T02:54:00.785Z,94.96
2019-04-30T02:56:30.047Z,94.64
2019-04-30T02:59:03.207Z,94.46
2019-04-30T03:01:30.518Z,94.95
2019-04-30T03:04:00.204Z,94.95
2019-04-30T03:06:30.377Z,95.46
2019-04-30T03:09:01.104Z,95.02
2019-04-30T03:11:30.458Z,95.02
2019-04-30T03:13:59.522Z,95.18
2019-04-30T03:16:35.684Z,95.30
2019-04-30T03:19:19.635Z,95.95
2019-04-30T03:22:01.198Z,95.95
2019-04-30T03:24:30.120Z,95.99
2019-04-30T03:26:59.494Z,95.99
2019-04-30T03:29:30.306Z,96.13
2019-04-30T03:32:02.505Z,96.13
2019-04-30T03:34:32.495Z,95.93
2019-04-30T03:37:02.030Z,96.66
2019-04-30T03:39:33.760Z,96.66
2019-04-30T03:42:01.289Z,96.29
2019-04-30T03:44:32.324Z,96.33
2019-04-30T03:47:01.016Z,96.59
2019-04-30T03:49:30.622Z,96.27
2019-04-30T03:52:00.089Z,96.27
2019-04-30T03:54:29.434Z,96.51
2019-04-30T03:57:00.829Z,96.66
2019-04-30T03:59:30.249Z,96.41
2019-04-30T04:02:21.400Z,96.41
2019-04-30T04:05:10.256Z,97.02
2019-04-30T04:08:02.702Z,96.70
2019-04-30T04:11:02.428Z,96.70
2019-04-30T04:13:33.087Z,96.76
2019-04-30T04:16:01.681Z,96.97
2019-04-30T04:18:30.333Z,96.11
2019-04-30T04:21:08.713Z,96.15
2019-04-30T04:23:32.852Z,96.01
2019-04-30T04:26:00.199Z,96.01
2019-04-30T04:28:29.987Z,95.49
2019-04-30T04:31:00.109Z,94.24
2019-04-30T04:33:29.740Z,93.05
2019-04-30T04:35:59.786Z,91.85
2019-04-30T04:38:30.379Z,92.24
2019-04-30T04:41:02.651Z,92.51
2019-04-30T04:43:30.127Z,92.81
2019-04-30T04:45:59.451Z,92.69
2019-04-30T04:48:29.772Z,92.92
2019-04-30T04:50:59.996Z,93.42
2019-04-30T04:53:30.409Z,92.89
2019-04-30T04:56:00.140Z,91.42
2019-04-30T04:58:30.246Z,92.31
2019-04-30T05:00:59.799Z,92.82
2019-04-30T05:03:32.809Z,93.17
2019-04-30T05:06:02.682Z,93.77
2019-04-30T05:08:31.794Z,94.24
2019-04-30T05:11:00.593Z,94.62
2019-04-30T05:13:29.585Z,94.82
2019-04-30T05:15:59.374Z,95.01
2019-04-30T05:18:29.123Z,95.33
2019-04-30T05:20:59.054Z,95.40
2019-04-30T05:23:29.851Z,95.46
2019-04-30T05:25:58.979Z,95.45
2019-04-30T05:28:29.947Z,95.18
2019-04-30T05:30:59.381Z,95.09
2019-04-30T05:33:28.754Z,94.98
2019-04-30T05:35:59.242Z,95.12
2019-04-30T05:38:28.735Z,94.55
2019-04-30T05:40:59.575Z,94.55
2019-04-30T05:43:29.047Z,94.51
2019-04-30T05:45:58.707Z,94.51
2019-04-30T05:48:28.653Z,94.62
2019-04-30T05:50:59.108Z,94.31
2019-04-30T05:53:28.711Z,93.90
2019-04-30T05:55:59.302Z,93.67
2019-04-30T05:58:29.979Z,92.76
2019-04-30T06:00:59.763Z,92.60
2019-04-30T06:03:33.078Z,92.25
2019-04-30T06:05:59.359Z,90.45
2019-04-30T06:08:33.048Z,90.11
2019-04-30T06:11:07.026Z,89.77
2019-04-30T06:13:49.096Z,87.58
2019-04-30T06:16:20.270Z,87.60
2019-04-30T06:18:49.393Z,87.42
2019-04-30T06:21:21.334Z,86.05
2019-04-30T06:23:49.278Z,85.27
2019-04-30T06:26:20.712Z,83.48
2019-04-30T06:28:49.665Z,83.00
2019-04-30T06:31:31.659Z,82.85
2019-04-30T06:33:49.806Z,82.22
2019-04-30T06:36:19.412Z,81.70
2019-04-30T06:38:48.978Z,81.07
2019-04-30T06:41:19.704Z,80.47
2019-04-30T06:43:48.899Z,79.19
2019-04-30T06:46:18.703Z,79.38
2019-04-30T06:48:50.837Z,78.60
2019-04-30T06:51:18.944Z,77.58
2019-04-30T06:53:49.560Z,75.62
2019-04-30T06:56:18.960Z,76.01
2019-04-30T06:58:49.361Z,74.64
2019-04-30T07:01:19.056Z,73.51
2019-04-30T07:03:48.736Z,72.39
2019-04-30T07:06:29.224Z,72.16
2019-04-30T07:08:59.538Z,71.72
2019-04-30T07:11:40.276Z,70.24
2019-04-30T07:14:09.691Z,69.38
2019-04-30T07:16:39.747Z,69.23
2019-04-30T07:19:09.297Z,71.14
2019-04-30T07:21:42.722Z,71.51
2019-04-30T07:24:09.679Z,69.69
2019-04-30T07:26:38.979Z,68.30
2019-04-30T07:29:09.654Z,68.01
2019-04-30T07:31:39.353Z,68.25
2019-04-30T07:34:09.317Z,68.03
2019-04-30T07:36:48.337Z,68.05
2019-04-30T07:39:10.063Z,63.61
2019-04-30T07:41:40.198Z,63.41
2019-04-30T07:44:10.986Z,61.38
2019-04-30T07:46:43.859Z,61.24
2019-04-30T07:49:10.225Z,59.82
2019-04-30T07:51:41.515Z,60.34
2019-04-30T07:54:09.334Z,58.14
2019-04-30T07:56:41.560Z,53.80
2019-04-30T07:59:11.077Z,53.67
2019-04-30T08:02:00.725Z,55.49
2019-04-30T08:04:29.461Z,54.25
2019-04-30T08:06:59.832Z,54.48
2019-04-30T08:09:38.767Z,52.82
2019-04-30T08:11:59.486Z,52.34
2019-04-30T08:14:28.839Z,53.78
2019-04-30T08:16:58.937Z,55.88
2019-04-30T08:19:28.720Z,54.20
2019-04-30T08:21:58.600Z,53.94
2019-04-30T08:24:29.086Z,53.55
2019-04-30T08:26:59.130Z,53.06
2019-04-30T08:29:29.487Z,51.44
2019-04-30T08:31:59.306Z,50.42
2019-04-30T08:34:29.212Z,50.54
2019-04-30T08:36:59.481Z,48.82
2019-04-30T08:39:31.612Z,48.26
2019-04-30T08:41:59.995Z,48.21
2019-04-30T08:44:29.449Z,47.88
2019-04-30T08:46:59.051Z,47.14
2019-04-30T08:49:30.199Z,47.95
2019-04-30T08:51:58.773Z,46.58
2019-04-30T08:54:29.478Z,44.92
2019-04-30T08:56:59.524Z,45.27
2019-04-30T08:59:29.562Z,45.77
2019-04-30T09:02:00.031Z,46.51
2019-04-30T09:04:30.192Z,45.38
2019-04-30T09:06:59.933Z,45.39
2019-04-30T09:09:29.630Z,45.53
2019-04-30T09:11:59.214Z,44.45
2019-04-30T09:14:29.800Z,45.99
2019-04-30T09:16:59.557Z,44.29
2019-04-30T09:19:29.822Z,43.96
2019-04-30T09:21:59.119Z,44.77
2019-04-30T09:24:30.740Z,44.83
2019-04-30T09:26:59.139Z,45.68
2019-04-30T09:29:29.296Z,45.88
2019-04-30T09:31:59.432Z,47.18
2019-04-30T09:34:29.100Z,45.32
2019-04-30T09:36:58.942Z,45.09
2019-04-30T09:39:29.536Z,43.59
2019-04-30T09:41:59.672Z,44.25
2019-04-30T09:44:30.741Z,44.27
2019-04-30T09:46:59.299Z,44.57
2019-04-30T09:49:29.401Z,43.78
2019-04-30T09:51:59.511Z,44.75
2019-04-30T09:54:29.480Z,44.46
2019-04-30T09:56:59.021Z,43.98
2019-04-30T09:59:29.167Z,43.53
2019-04-30T10:01:58.343Z,42.01
2019-04-30T10:04:29.880Z,40.21
2019-04-30T10:06:59.559Z,38.38
2019-04-30T10:09:29.349Z,40.72
2019-04-30T10:12:09.881Z,39.54
2019-04-30T10:14:40.808Z,38.15
2019-04-30T10:17:28.391Z,38.17
2019-04-30T10:19:56.980Z,37.75
2019-04-30T10:22:25.596Z,37.94
2019-04-30T10:24:54.210Z,36.30
2019-04-30T10:27:23.208Z,36.60
2019-04-30T10:29:53.215Z,37.09
2019-04-30T10:32:21.821Z,38.10
2019-04-30T10:34:50.461Z,39.39
2019-04-30T10:37:19.390Z,37.14
2019-04-30T10:39:49.001Z,36.02
2019-04-30T10:42:18.295Z,36.64
2019-04-30T10:44:46.871Z,35.90
2019-04-30T10:47:15.865Z,36.53
2019-04-30T10:49:44.590Z,35.26
2019-04-30T10:52:13.445Z,34.94
2019-04-30T10:54:42.059Z,35.05
2019-04-30T10:57:11.080Z,35.29
2019-04-30T10:59:39.811Z,36.20
2019-04-30T11:02:09.083Z,37.65
2019-04-30T11:04:38.316Z,37.28
2019-04-30T11:07:08.646Z,34.30
2019-04-30T11:09:39.385Z,36.40
2019-04-30T11:12:09.455Z,35.16
2019-04-30T11:14:38.480Z,36.02
2019-04-30T11:17:09.641Z,36.76
2019-04-30T11:19:39.181Z,36.50
2019-04-30T11:22:08.426Z,35.67
2019-04-30T11:24:53.233Z,35.20
2019-04-30T11:27:10.673Z,34.66
2019-04-30T11:29:39.456Z,34.66
2019-04-30T11:32:34.200Z,34.51
2019-04-30T11:35:03.144Z,35.62
2019-04-30T11:37:31.792Z,36.02
2019-04-30T11:40:00.675Z,35.61
2019-04-30T11:42:32.322Z,36.10
2019-04-30T11:45:00.418Z,35.35
2019-04-30T11:47:34.248Z,36.26
2019-04-30T11:50:03.747Z,35.79
2019-04-30T11:52:32.731Z,38.67
2019-04-30T11:55:01.624Z,37.87
2019-04-30T11:57:30.651Z,39.71
2019-04-30T11:59:59.589Z,38.99
2019-04-30T12:02:36.650Z,37.86
2019-04-30T12:05:06.567Z,39.52
2019-04-30T12:07:42.101Z,39.18
2019-04-30T12:10:20.351Z,36.71
2019-04-30T12:12:49.332Z,37.31
2019-04-30T12:15:19.248Z,36.93
2019-04-30T12:17:48.758Z,37.17
2019-04-30T12:20:19.677Z,37.36
2019-04-30T12:22:49.349Z,37.43
2019-04-30T12:25:18.710Z,38.29
2019-04-30T12:27:48.860Z,38.98
2019-04-30T12:30:20.551Z,39.97
2019-04-30T12:32:49.329Z,40.81
2019-04-30T12:35:18.706Z,39.51
2019-04-30T12:37:49.336Z,40.09
2019-04-30T12:40:28.573Z,37.73
2019-04-30T12:42:48.788Z,38.05
2019-04-30T12:45:19.345Z,39.83
2019-04-30T12:47:52.424Z,38.64
2019-04-30T12:50:40.599Z,39.96
2019-04-30T12:53:14.173Z,40.99
2019-04-30T12:56:02.547Z,38.89
2019-04-30T12:58:31.435Z,38.79
2019-04-30T13:01:00.642Z,39.00
2019-04-30T13:03:30.840Z,39.80
2019-04-30T13:06:01.114Z,37.29
2019-04-30T13:08:31.165Z,38.88
2019-04-30T13:11:00.828Z,39.58
2019-04-30T13:13:32.175Z,38.87
2019-04-30T13:16:00.443Z,37.29
2019-04-30T13:18:29.567Z,39.09
2019-04-30T13:20:58.977Z,39.03
2019-04-30T13:23:29.774Z,39.91
2019-04-30T13:26:01.007Z,40.11
2019-04-30T13:28:31.242Z,40.08
2019-04-30T13:31:00.132Z,39.08
2019-04-30T13:33:41.237Z,38.46
2019-04-30T13:36:10.184Z,36.11
2019-04-30T13:38:52.350Z,36.61
2019-04-30T13:41:33.040Z,36.17
2019-04-30T13:44:06.310Z,34.75
2019-04-30T13:46:35.002Z,36.36
2019-04-30T13:49:04.056Z,37.16
2019-04-30T13:51:32.919Z,37.45
2019-04-30T13:54:01.637Z,38.15
2019-04-30T13:56:30.821Z,37.67
2019-04-30T13:58:59.816Z,37.24
2019-04-30T14:01:29.382Z,37.68
2019-04-30T14:04:19.787Z,38.70
2019-04-30T14:07:06.316Z,38.24
2019-04-30T14:09:35.225Z,38.50
2019-04-30T14:12:04.151Z,38.45
2019-04-30T14:14:33.408Z,39.08
2019-04-30T14:17:02.032Z,38.31
2019-04-30T14:19:30.721Z,38.91
2019-04-30T14:21:59.366Z,37.87
2019-04-30T14:24:28.259Z,37.47
2019-04-30T14:26:59.062Z,37.06
2019-04-30T14:29:28.493Z,39.10
2019-04-30T14:31:58.841Z,42.71
2019-04-30T14:34:28.632Z,45.79
2019-04-30T14:36:59.396Z,48.27
2019-04-30T14:39:29.296Z,48.69
2019-04-30T14:42:00.137Z,48.75
2019-04-30T14:44:31.784Z,49.34
2019-04-30T14:47:13.925Z,49.21
2019-04-30T14:50:05.426Z,49.65
2019-04-30T14:52:40.350Z,51.44
2019-04-30T14:55:26.845Z,51.71
2019-04-30T14:58:20.257Z,52.66
2019-04-30T15:00:59.333Z,54.03
2019-04-30T15:03:29.509Z,54.17
2019-04-30T15:05:59.012Z,55.11
2019-04-30T15:08:29.308Z,54.65
2019-04-30T15:10:58.129Z,54.63
2019-04-30T15:13:29.392Z,54.83
2019-04-30T15:15:57.801Z,54.65
2019-04-30T15:18:28.886Z,56.11
2019-04-30T15:20:59.353Z,56.31
2019-04-30T15:23:39.427Z,56.53
2019-04-30T15:26:09.744Z,55.87
2019-04-30T15:28:39.316Z,56.70
2019-04-30T15:31:09.789Z,56.54
2019-04-30T15:34:02.922Z,55.38
2019-04-30T15:36:30.902Z,54.65
2019-04-30T15:39:39.139Z,54.67
2019-04-30T15:42:08.063Z,52.67
2019-04-30T15:44:40.222Z,52.30
2019-04-30T15:47:09.129Z,52.66
2019-04-30T15:49:38.167Z,53.33
2019-04-30T15:52:10.763Z,53.43
2019-04-30T15:54:39.243Z,53.61
2019-04-30T15:57:08.891Z,53.50
2019-04-30T15:59:42.244Z,53.39
2019-04-30T16:02:29.937Z,52.91
2019-04-30T16:05:23.751Z,51.79
2019-04-30T16:08:02.575Z,52.36
2019-04-30T16:10:53.714Z,51.85
2019-04-30T16:13:24.626Z,50.00
2019-04-30T16:15:53.512Z,48.48
2019-04-30T16:18:22.428Z,47.80
2019-04-30T16:20:51.719Z,47.49
2019-04-30T16:23:20.772Z,47.70
2019-04-30T16:25:49.698Z,46.70
2019-04-30T16:28:19.568Z,47.02
2019-04-30T16:30:48.393Z,47.60
2019-04-30T16:33:19.355Z,47.40
2019-04-30T16:35:50.878Z,46.97
2019-04-30T16:38:20.760Z,47.38
2019-04-30T16:40:49.061Z,46.97
2019-04-30T16:43:18.626Z,47.36
2019-04-30T16:45:49.401Z,46.86
2019-04-30T16:48:19.318Z,45.95
2019-04-30T16:50:51.269Z,46.41
2019-04-30T16:53:19.909Z,47.14
2019-04-30T16:55:50.645Z,47.37
2019-04-30T16:58:19.800Z,47.97
2019-04-30T17:00:49.352Z,47.94
2019-04-30T17:03:25.565Z,48.61
2019-04-30T17:06:01.226Z,48.38
2019-04-30T17:08:39.131Z,48.35
2019-04-30T17:11:33.426Z,47.83
2019-04-30T17:14:05.252Z,47.91
2019-04-30T17:16:33.868Z,48.22
2019-04-30T17:19:03.082Z,48.03
2019-04-30T17:21:32.065Z,47.97
2019-04-30T17:24:00.674Z,48.57
2019-04-30T17:26:29.752Z,48.58
2019-04-30T17:28:59.842Z,48.33
2019-04-30T17:31:28.623Z,48.04
2019-04-30T17:33:57.550Z,48.52
2019-04-30T17:36:26.963Z,48.51
2019-04-30T17:38:55.600Z,48.19
2019-04-30T17:41:26.685Z,48.49
2019-04-30T17:43:55.860Z,48.32
2019-04-30T17:46:24.509Z,48.69
2019-04-30T17:48:53.564Z,48.87
2019-04-30T17:51:22.950Z,49.01
2019-04-30T17:54:13.318Z,49.33
2019-04-30T17:56:42.990Z,49.54
2019-04-30T17:59:12.168Z,49.61
2019-04-30T18:01:44.034Z,49.81
2019-04-30T18:04:12.640Z,50.26
2019-04-30T18:06:41.566Z,50.43
2019-04-30T18:09:11.068Z,51.06
2019-04-30T18:11:40.007Z,51.38
2019-04-30T18:14:08.925Z,52.26
2019-04-30T18:16:38.790Z,52.74
2019-04-30T18:19:28.499Z,53.31
2019-04-30T18:22:11.302Z,53.55
2019-04-30T18:25:00.647Z,54.13
2019-04-30T18:27:43.878Z,54.68
2019-04-30T18:30:06.230Z,55.00
2019-04-30T18:32:34.845Z,55.54
2019-04-30T18:35:03.827Z,55.77
2019-04-30T18:37:33.121Z,56.24
2019-04-30T18:40:02.118Z,56.85
2019-04-30T18:42:31.621Z,57.07
2019-04-30T18:45:00.923Z,57.52
2019-04-30T18:47:29.576Z,57.90
2019-04-30T18:49:59.457Z,58.28
2019-04-30T18:52:28.519Z,58.29
2019-04-30T18:54:59.398Z,58.59
2019-04-30T18:57:28.043Z,58.84
2019-04-30T18:59:57.022Z,58.94
2019-04-30T19:02:26.232Z,59.33
2019-04-30T19:04:55.144Z,59.35
2019-04-30T19:07:32.313Z,59.96
2019-04-30T19:10:23.524Z,59.76
2019-04-30T19:12:59.089Z,59.65
2019-04-30T19:16:17.930Z,59.79
2019-04-30T19:18:45.802Z,59.80
2019-04-30T19:21:14.456Z,59.71
2019-04-30T19:23:43.380Z,59.14
2019-04-30T19:26:12.368Z,58.94
2019-04-30T19:28:41.575Z,58.67
2019-04-30T19:31:11.702Z,58.91
2019-04-30T19:33:40.459Z,59.07
2019-04-30T19:36:09.813Z,59.21
2019-04-30T19:38:38.663Z,59.44
2019-04-30T19:41:10.486Z,59.45
2019-04-30T19:43:39.109Z,59.69
2019-04-30T19:46:09.193Z,60.21
2019-04-30T19:48:37.981Z,60.92
2019-04-30T19:51:08.699Z,60.96
2019-04-30T19:53:39.480Z,61.06
2019-04-30T19:56:08.016Z,60.14
2019-04-30T19:58:48.762Z,60.00
2019-04-30T20:01:09.382Z,59.70
2019-04-30T20:03:37.750Z,59.88
2019-04-30T20:06:08.915Z,60.14
2019-04-30T20:08:38.727Z,60.38
2019-04-30T20:11:07.450Z,60.60
2019-04-30T20:13:37.284Z,61.00
2019-04-30T20:16:06.579Z,61.30
2019-04-30T20:18:35.595Z,61.87
2019-04-30T20:21:09.216Z,61.71
2019-04-30T20:23:38.689Z,62.09
2019-04-30T20:26:07.586Z,61.95
2019-04-30T20:28:40.000Z,61.88
2019-04-30T20:31:09.124Z,62.17
2019-04-30T20:33:38.875Z,62.52
2019-04-30T20:36:09.209Z,62.80
2019-04-30T20:39:00.298Z,62.63
2019-04-30T20:41:30.216Z,62.84
2019-04-30T20:43:58.828Z,63.45
2019-04-30T20:46:34.237Z,63.71
2019-04-30T20:48:59.316Z,64.01
2019-04-30T20:51:29.102Z,64.54
2019-04-30T20:53:59.272Z,64.65
2019-04-30T20:56:29.145Z,64.86
2019-04-30T20:59:02.362Z,65.12
2019-04-30T21:01:29.506Z,65.72
2019-04-30T21:03:58.590Z,65.66
2019-04-30T21:06:27.182Z,66.26
2019-04-30T21:08:56.105Z,65.86
2019-04-30T21:11:25.089Z,66.26
2019-04-30T21:13:54.399Z,66.78
2019-04-30T21:16:23.603Z,66.37
2019-04-30T21:18:52.240Z,66.58
2019-04-30T21:21:21.281Z,66.79
2019-04-30T21:23:50.478Z,67.00
2019-04-30T21:26:19.724Z,67.64
2019-04-30T21:28:49.543Z,68.33
2019-04-30T21:31:36.205Z,68.51
2019-04-30T21:34:29.345Z,68.72
2019-04-30T21:36:59.649Z,68.97
2019-04-30T21:39:28.573Z,69.59
2019-04-30T21:41:59.324Z,70.14
2019-04-30T21:44:27.807Z,70.69
2019-04-30T21:46:56.430Z,70.98
2019-04-30T21:49:25.067Z,71.16
2019-04-30T21:51:54.397Z,71.54
2019-04-30T21:54:23.255Z,71.61
2019-04-30T21:56:51.882Z,72.03
2019-04-30T21:59:24.467Z,72.57
2019-04-30T22:01:51.573Z,73.15
2019-04-30T22:04:20.559Z,73.51
2019-04-30T22:06:50.274Z,74.53
2019-04-30T22:09:19.264Z,74.33
2019-04-30T22:11:49.416Z,74.27
2019-04-30T22:14:18.865Z,74.60
2019-04-30T22:16:49.337Z,74.58
2019-04-30T22:19:17.971Z,75.59
2019-04-30T22:21:47.100Z,75.51
2019-04-30T22:24:15.796Z,75.49
2019-04-30T22:26:44.984Z,76.36
2019-04-30T22:29:13.877Z,76.19
2019-04-30T22:31:42.502Z,76.15
2019-04-30T22:34:11.152Z,76.69
2019-04-30T22:36:45.775Z,76.71
2019-04-30T22:39:32.895Z,76.43
2019-04-30T22:42:19.110Z,76.49
2019-04-30T22:44:48.082Z,76.81
2019-04-30T22:47:16.945Z,76.80
2019-04-30T22:49:45.870Z,76.87
2019-04-30T22:52:14.756Z,77.80
2019-04-30T22:54:43.953Z,77.99
2019-04-30T22:57:13.152Z,77.94
2019-04-30T22:59:49.661Z,78.29
2019-04-30T23:02:40.325Z,78.50
2019-04-30T23:05:10.576Z,78.31
2019-04-30T23:07:39.850Z,78.38
2019-04-30T23:10:08.826Z,78.76
2019-04-30T23:12:37.732Z,78.53
2019-04-30T23:15:07.201Z,79.01
2019-04-30T23:17:36.130Z,78.98
2019-04-30T23:20:05.461Z,79.12
2019-04-30T23:22:34.731Z,79.70
2019-04-30T23:25:03.345Z,79.82
2019-04-30T23:27:32.242Z,79.62
2019-04-30T23:30:03.410Z,80.41
2019-04-30T23:32:31.746Z,80.71
2019-04-30T23:35:00.620Z,81.24
2019-04-30T23:37:29.516Z,81.27
2019-04-30T23:40:18.989Z,81.63
2019-04-30T23:42:47.878Z,82.11
2019-04-30T23:45:16.764Z,82.36
2019-04-30T23:47:45.967Z,82.18
2019-04-30T23:50:14.961Z,82.49
2019-04-30T23:52:43.857Z,82.81
2019-04-30T23:55:12.649Z,83.17
2019-04-30T23:57:41.527Z,83.06
